メインページ
METAR-TAF:

METAR-TAF

空港 :

プリンセス・ジュリアナ国際空港

シント・マールテン, オランダ領アンティル

緯度: 18-03N, 経度: 063-07W, 海抜: 4m

現時点の気象観測

当レポートは48分前の12:00(UTC)に作成
の風 13kt、北東から東/南東の間で変化する
気温 30°C
湿度 70%
気圧 1015 hPa
視程10km以上
高度1800ftの雲は散在している

METAR: TNCM 261200Z 08013KT 050V110 9999 SCT018 30/24 Q1014 A2996 NOSIG

時間: 08:48 (12:48 UTC)

予報

当レポートは47分前の12:01(UTC)に作成
予報は26日の 12時(UTC)から 27日の 12時(UTC)まで有効
東/北東の風 9kt
視程: 10km
高度1800ftの雲はほとんどない
高度3500ftの千切れ雲あり
近辺でにわか雨
26日の 1430時(UTC)から
の風 12kt
視程: 10km
高度2400ftの雲は散在している
高度5000ftの雲は散在している
26日の 2200時(UTC)から
東/北東の風 9kt
視程: 10km
高度1800ftの雲は散在している
高度4000ftの雲は散在している
近辺でにわか雨

TAF: TNCM 261201Z 2612/2712 07009KT P6SM VCSH FEW018 BKN035 FM261430 08012KT P6SM SCT024 SCT050 FM262200 07009KT P6SM VCSH SCT018 SCT040

4,000以上の空港の気象観測と天気予報(METAR報とTAF報)

利用可能な観測所は地図上に黄色い丸と赤い丸で示す。

丸の上にカーソルを重ねると観測所名を参照できる。

次にクリックすると気象観測と天気予報を参照できる。

マップの切り替え:黒色「×」印の緑ボタンをクリックして拡大、「-」印の緑ボタンをクリックして縮小、緑色の三角印をクリックして隣りの地図に切り替え


METAR-TAF: